Time;durP1;ratioP1;P1;durP2;ratioP2;P2;SDS_P1;SDS_P2;PMS_P1;PMS_P2;Temp;Humidity;BMP_temperature;BMP_pressure;BME280_temperature;BME280_humidity;BME280_pressure;Samples;Min_cycle;Max_cycle;Signal;HPM_P1;HPM_P2
2023/08/08 00:02:57;;;;;;;1.15;0.90;;;;;;;;;;8201279;28;21152;-70
2023/08/08 00:06:57;;;;;;;0.70;0.70;;;;;;;;;;8203453;28;20061;-69
2023/08/08 00:10:57;;;;;;;1.33;0.90;;;;;;;;;;8202487;28;20026;-70
2023/08/08 00:14:58;;;;;;;0.90;0.90;;;;;;;;;;8200975;28;20022;-70
2023/08/08 00:18:58;;;;;;;1.20;1.10;;;;;;;;;;8202123;28;20131;-70
2023/08/08 00:22:58;;;;;;;1.63;0.95;;;;;;;;;;8202710;28;20084;-70
2023/08/08 00:26:58;;;;;;;0.90;0.90;;;;;;;;;;8202726;28;20036;-69
2023/08/08 00:30:58;;;;;;;0.90;0.90;;;;;;;;;;8200680;28;20479;-70
2023/08/08 00:34:59;;;;;;;1.75;0.95;;;;;;;;;;8203266;28;20401;-70
2023/08/08 00:38:59;;;;;;;1.20;1.10;;;;;;;;;;8201264;28;20029;-70
2023/08/08 00:42:59;;;;;;;1.17;0.77;;;;;;;;;;8201370;28;20029;-70
2023/08/08 00:46:59;;;;;;;2.20;1.10;;;;;;;;;;8200255;28;20501;-69
2023/08/08 00:51:00;;;;;;;1.00;0.90;;;;;;;;;;8201411;28;20649;-70
2023/08/08 00:55:01;;;;;;;1.58;1.10;;;;;;;;;;8199190;28;20023;-69
2023/08/08 00:59:02;;;;;;;1.77;1.10;;;;;;;;;;8200263;28;21016;-69
2023/08/08 01:03:02;;;;;;;1.50;1.00;;;;;;;;;;8205226;28;20113;-69
2023/08/08 01:07:05;;;;;;;1.40;1.30;;;;;;;;;;8208214;28;20061;-69
2023/08/08 01:11:05;;;;;;;4.63;1.10;;;;;;;;;;8208934;28;20792;-69
2023/08/08 01:15:07;;;;;;;2.08;1.08;;;;;;;;;;8208405;28;20035;-70
2023/08/08 01:19:10;;;;;;;2.95;0.88;;;;;;;;;;8206931;28;21040;-70
2023/08/08 01:23:30;;;;;;;1.45;0.98;;;;;;;;;;8207915;28;20372;-70
2023/08/08 01:27:30;;;;;;;2.95;0.90;;;;;;;;;;8208103;28;20029;-70
2023/08/08 01:31:30;;;;;;;1.73;0.80;;;;;;;;;;8207398;28;20471;-70
2023/08/08 01:35:32;;;;;;;1.00;0.90;;;;;;;;;;8216174;28;20113;-70
2023/08/08 01:39:32;;;;;;;1.13;0.85;;;;;;;;;;8205588;28;20034;-70
2023/08/08 01:43:33;;;;;;;2.05;1.00;;;;;;;;;;8207545;28;20041;-70
2023/08/08 01:47:33;;;;;;;1.15;1.05;;;;;;;;;;8205094;28;20043;-70
2023/08/08 01:51:33;;;;;;;1.45;0.90;;;;;;;;;;8213690;28;20080;-70
2023/08/08 01:55:34;;;;;;;1.00;0.97;;;;;;;;;;8204019;28;20026;-70
2023/08/08 01:59:34;;;;;;;0.95;0.90;;;;;;;;;;8206636;28;20274;-70
2023/08/08 02:03:34;;;;;;;1.02;0.82;;;;;;;;;;8206111;28;20094;-70
2023/08/08 02:07:34;;;;;;;2.15;1.00;;;;;;;;;;8205723;28;20022;-70
2023/08/08 02:11:35;;;;;;;1.00;0.90;;;;;;;;;;8204269;28;20102;-70
2023/08/08 02:15:35;;;;;;;1.27;0.90;;;;;;;;;;8206465;28;20310;-70
2023/08/08 02:19:35;;;;;;;1.10;1.00;;;;;;;;;;8206184;28;20034;-70
2023/08/08 02:23:35;;;;;;;2.67;0.90;;;;;;;;;;8206918;28;20038;-70
2023/08/08 02:27:35;;;;;;;1.02;0.98;;;;;;;;;;8205228;28;20094;-70
2023/08/08 02:31:35;;;;;;;1.55;1.00;;;;;;;;;;8206923;28;20101;-70
2023/08/08 02:35:36;;;;;;;1.25;0.82;;;;;;;;;;8210327;28;20050;-70
2023/08/08 02:39:36;;;;;;;1.70;1.20;;;;;;;;;;8206402;28;20117;-70
2023/08/08 02:43:37;;;;;;;1.40;1.00;;;;;;;;;;8207207;28;20755;-70
2023/08/08 02:47:37;;;;;;;5.93;1.00;;;;;;;;;;8214661;28;20049;-70
2023/08/08 02:51:37;;;;;;;1.27;0.98;;;;;;;;;;8215675;28;20023;-70
2023/08/08 02:55:38;;;;;;;1.60;1.10;;;;;;;;;;8210319;28;20495;-70
2023/08/08 02:59:38;;;;;;;2.40;1.08;;;;;;;;;;8206902;28;20324;-69
2023/08/08 03:03:39;;;;;;;2.97;1.30;;;;;;;;;;8206309;28;20420;-69
2023/08/08 03:07:39;;;;;;;1.70;1.17;;;;;;;;;;8206156;28;20045;-70
2023/08/08 03:11:41;;;;;;;1.25;1.13;;;;;;;;;;8208239;28;20030;-69
2023/08/08 03:15:41;;;;;;;1.92;1.10;;;;;;;;;;8206044;28;20049;-69
2023/08/08 03:19:42;;;;;;;1.65;0.98;;;;;;;;;;8205621;28;20082;-70
2023/08/08 03:23:42;;;;;;;2.67;1.00;;;;;;;;;;8205548;28;20034;-69
2023/08/08 03:27:42;;;;;;;1.45;1.02;;;;;;;;;;8204915;28;20026;-69
2023/08/08 03:31:42;;;;;;;2.25;1.00;;;;;;;;;;8206800;28;20165;-69
2023/08/08 03:35:43;;;;;;;3.42;1.30;;;;;;;;;;8206937;28;20135;-69
2023/08/08 03:39:43;;;;;;;1.83;1.15;;;;;;;;;;8205113;28;20070;-69
2023/08/08 03:43:43;;;;;;;1.90;1.27;;;;;;;;;;8203956;28;20034;-69
2023/08/08 03:47:44;;;;;;;1.97;1.30;;;;;;;;;;8202254;28;20459;-69
2023/08/08 03:51:44;;;;;;;2.10;1.20;;;;;;;;;;8207258;28;20034;-69
2023/08/08 03:55:44;;;;;;;3.80;1.13;;;;;;;;;;8207188;28;20068;-70
2023/08/08 03:59:44;;;;;;;2.00;1.45;;;;;;;;;;8203618;28;20034;-70
2023/08/08 04:03:44;;;;;;;1.70;1.10;;;;;;;;;;8202325;28;20497;-70
2023/08/08 04:07:45;;;;;;;2.65;1.20;;;;;;;;;;8203922;28;20539;-70
2023/08/08 04:11:45;;;;;;;2.47;1.20;;;;;;;;;;8207992;28;20061;-70
2023/08/08 04:15:45;;;;;;;2.28;1.10;;;;;;;;;;8204211;28;20412;-70
2023/08/08 04:19:45;;;;;;;2.23;1.10;;;;;;;;;;8203184;28;20962;-69
2023/08/08 04:23:45;;;;;;;2.08;1.20;;;;;;;;;;8204176;28;20277;-70
2023/08/08 04:27:47;;;;;;;1.27;1.17;;;;;;;;;;8205103;28;20752;-70
2023/08/08 04:31:47;;;;;;;2.42;1.10;;;;;;;;;;8202993;28;21675;-69
2023/08/08 04:35:47;;;;;;;2.83;1.50;;;;;;;;;;8202410;28;20026;-69
2023/08/08 04:39:47;;;;;;;2.70;1.30;;;;;;;;;;8203179;28;20376;-70
2023/08/08 04:43:47;;;;;;;2.53;1.42;;;;;;;;;;8203730;28;20030;-69
2023/08/08 04:47:48;;;;;;;3.55;1.65;;;;;;;;;;8203280;28;20169;-70
2023/08/08 04:51:48;;;;;;;6.13;1.77;;;;;;;;;;8204167;28;20034;-69
2023/08/08 04:55:48;;;;;;;5.95;2.17;;;;;;;;;;8202144;28;20123;-70
2023/08/08 04:59:49;;;;;;;10.80;2.88;;;;;;;;;;8203165;28;20644;-69
2023/08/08 05:03:49;;;;;;;11.48;3.35;;;;;;;;;;8200864;28;20038;-70
2023/08/08 05:07:49;;;;;;;12.93;4.03;;;;;;;;;;8204886;28;20462;-70
2023/08/08 05:11:50;;;;;;;13.90;4.07;;;;;;;;;;8204471;28;20053;-70
2023/08/08 05:15:50;;;;;;;10.50;3.10;;;;;;;;;;8203398;28;20278;-70
2023/08/08 05:19:50;;;;;;;15.60;2.50;;;;;;;;;;8205635;28;20034;-70
2023/08/08 05:23:50;;;;;;;10.13;2.35;;;;;;;;;;8205032;28;20539;-71
2023/08/08 05:27:51;;;;;;;7.93;2.38;;;;;;;;;;8204064;28;20058;-70
2023/08/08 05:31:51;;;;;;;7.45;1.92;;;;;;;;;;8205082;28;20041;-71
2023/08/08 05:35:52;;;;;;;6.57;2.00;;;;;;;;;;8206589;28;20030;-71
2023/08/08 05:39:53;;;;;;;6.38;2.00;;;;;;;;;;8202817;28;20034;-71
2023/08/08 05:43:53;;;;;;;4.85;1.77;;;;;;;;;;8204244;28;20107;-71
2023/08/08 05:47:55;;;;;;;6.27;1.87;;;;;;;;;;8202936;28;20066;-71
2023/08/08 05:51:55;;;;;;;9.57;1.77;;;;;;;;;;8210293;28;20451;-70
2023/08/08 05:55:55;;;;;;;9.73;2.20;;;;;;;;;;8212968;28;20419;-71
2023/08/08 05:59:56;;;;;;;9.83;2.50;;;;;;;;;;8209098;28;20026;-71
2023/08/08 06:03:59;;;;;;;9.73;1.95;;;;;;;;;;8207804;28;20045;-70
2023/08/08 06:07:59;;;;;;;5.03;1.80;;;;;;;;;;8208386;28;20026;-71
2023/08/08 06:11:59;;;;;;;8.20;1.70;;;;;;;;;;8211085;28;20514;-70
2023/08/08 06:16:01;;;;;;;5.22;2.17;;;;;;;;;;8209849;28;20035;-71
2023/08/08 06:20:01;;;;;;;12.30;2.00;;;;;;;;;;8209138;28;20019;-71
2023/08/08 06:24:01;;;;;;;4.22;1.63;;;;;;;;;;8207057;28;20121;-71
2023/08/08 06:28:01;;;;;;;2.95;1.30;;;;;;;;;;8208297;28;20022;-71
2023/08/08 06:32:01;;;;;;;2.92;1.00;;;;;;;;;;8206700;28;20114;-71
2023/08/08 06:36:03;;;;;;;1.77;1.00;;;;;;;;;;8209697;28;20046;-71
2023/08/08 06:40:03;;;;;;;2.38;0.85;;;;;;;;;;8207240;28;20042;-71
2023/08/08 06:44:04;;;;;;;2.08;0.88;;;;;;;;;;8208217;28;20035;-72
2023/08/08 06:48:05;;;;;;;2.42;1.02;;;;;;;;;;8207399;28;20042;-71
2023/08/08 06:52:06;;;;;;;3.63;0.95;;;;;;;;;;8207186;28;20027;-71
2023/08/08 06:56:06;;;;;;;1.60;1.02;;;;;;;;;;8208797;28;20022;-71
2023/08/08 07:00:08;;;;;;;3.28;0.98;;;;;;;;;;8204859;28;20037;-72
2023/08/08 07:04:08;;;;;;;3.58;0.93;;;;;;;;;;8206883;28;20022;-71
2023/08/08 07:08:08;;;;;;;2.47;0.80;;;;;;;;;;8206680;28;20041;-71
2023/08/08 07:12:09;;;;;;;1.48;0.82;;;;;;;;;;8205616;28;20031;-71
2023/08/08 07:16:09;;;;;;;1.83;1.00;;;;;;;;;;8208348;28;20316;-71
2023/08/08 07:20:13;;;;;;;3.00;1.10;;;;;;;;;;8205993;28;20281;-71
2023/08/08 07:24:13;;;;;;;1.40;1.00;;;;;;;;;;8209997;28;20038;-72
2023/08/08 07:28:14;;;;;;;1.70;0.93;;;;;;;;;;8206167;28;20153;-72
2023/08/08 07:32:14;;;;;;;2.83;1.00;;;;;;;;;;8215307;28;20736;-71
2023/08/08 07:36:14;;;;;;;1.77;0.90;;;;;;;;;;8207929;28;20027;-71
2023/08/08 07:40:17;;;;;;;2.30;1.00;;;;;;;;;;8206270;28;20089;-72
2023/08/08 07:44:17;;;;;;;3.35;1.48;;;;;;;;;;8208143;28;20875;-72
2023/08/08 07:48:17;;;;;;;2.03;1.20;;;;;;;;;;8206321;28;20078;-72
2023/08/08 07:52:18;;;;;;;5.05;1.02;;;;;;;;;;8208613;28;20035;-72
2023/08/08 07:56:18;;;;;;;3.10;1.33;;;;;;;;;;8207714;28;20035;-72
2023/08/08 08:00:18;;;;;;;3.47;0.90;;;;;;;;;;8207186;28;20033;-72
2023/08/08 08:04:18;;;;;;;4.43;1.00;;;;;;;;;;8208906;28;20509;-72
2023/08/08 08:08:19;;;;;;;2.40;1.20;;;;;;;;;;8208125;28;20155;-71
2023/08/08 08:12:20;;;;;;;2.38;0.88;;;;;;;;;;8208273;28;20067;-71
2023/08/08 08:16:20;;;;;;;1.80;1.02;;;;;;;;;;8206225;28;20035;-71
2023/08/08 08:20:21;;;;;;;3.78;1.13;;;;;;;;;;8206025;28;20034;-71
2023/08/08 08:24:21;;;;;;;6.57;1.27;;;;;;;;;;8206240;28;20085;-71
2023/08/08 08:28:21;;;;;;;1.90;1.10;;;;;;;;;;8206929;28;20324;-70
2023/08/08 08:32:22;;;;;;;2.47;1.30;;;;;;;;;;8212754;28;20825;-70
2023/08/08 08:36:22;;;;;;;3.22;1.02;;;;;;;;;;8208362;28;20156;-70
2023/08/08 08:40:23;;;;;;;2.95;1.00;;;;;;;;;;8206892;28;20070;-71
2023/08/08 08:44:23;;;;;;;4.70;1.20;;;;;;;;;;8206287;28;20565;-71
2023/08/08 08:48:24;;;;;;;2.28;1.08;;;;;;;;;;8212001;28;20054;-71
2023/08/08 08:52:24;;;;;;;3.00;1.13;;;;;;;;;;8205817;28;20019;-71
2023/08/08 08:56:24;;;;;;;4.70;1.30;;;;;;;;;;8205865;28;20085;-72
2023/08/08 09:00:25;;;;;;;2.25;1.10;;;;;;;;;;8207277;28;20039;-71
2023/08/08 09:04:27;;;;;;;4.00;1.23;;;;;;;;;;8207100;28;20021;-71
2023/08/08 09:08:28;;;;;;;1.75;1.13;;;;;;;;;;8213602;28;20117;-71
2023/08/08 09:12:28;;;;;;;1.60;1.00;;;;;;;;;;8207044;28;20022;-72
2023/08/08 09:16:29;;;;;;;2.70;1.05;;;;;;;;;;8205506;28;20122;-72
2023/08/08 09:20:30;;;;;;;4.57;1.10;;;;;;;;;;8205600;28;20548;-70
2023/08/08 09:24:30;;;;;;;5.78;1.65;;;;;;;;;;8221182;28;20052;-72
2023/08/08 09:28:30;;;;;;;2.00;1.20;;;;;;;;;;8210362;28;20389;-71
2023/08/08 09:32:31;;;;;;;1.93;1.00;;;;;;;;;;8211098;28;20035;-71
2023/08/08 09:36:31;;;;;;;3.38;1.00;;;;;;;;;;8210256;28;20121;-71
2023/08/08 09:40:32;;;;;;;3.45;1.05;;;;;;;;;;8211480;28;20022;-71
2023/08/08 09:44:34;;;;;;;1.63;1.08;;;;;;;;;;8213642;28;20031;-72
2023/08/08 09:48:35;;;;;;;4.25;1.38;;;;;;;;;;8210974;28;20724;-72
2023/08/08 09:52:38;;;;;;;7.80;1.20;;;;;;;;;;8211296;28;20028;-72
2023/08/08 09:56:38;;;;;;;;;;;;;;;;;;8213557;28;20596;-72
2023/08/08 10:00:39;;;;;;;2.45;1.20;;;;;;;;;;8224413;28;19926;-72
2023/08/08 10:04:39;;;;;;;2.55;1.10;;;;;;;;;;8211015;28;20031;-72
2023/08/08 10:08:39;;;;;;;2.72;1.10;;;;;;;;;;8207318;28;20145;-72
2023/08/08 10:12:41;;;;;;;6.10;1.20;;;;;;;;;;8210603;28;20499;-72
2023/08/08 10:16:44;;;;;;;2.83;1.40;;;;;;;;;;8223034;28;20293;-73
2023/08/08 10:20:47;;;;;;;3.83;1.20;;;;;;;;;;8209774;28;20748;-73
2023/08/08 10:24:48;;;;;;;2.13;1.20;;;;;;;;;;8207557;28;20470;-73
2023/08/08 10:28:52;;;;;;;2.25;1.27;;;;;;;;;;8210247;28;20034;-73
2023/08/08 10:32:56;;;;;;;2.10;1.13;;;;;;;;;;8209844;28;20038;-72
2023/08/08 10:36:57;;;;;;;3.78;1.30;;;;;;;;;;8210464;28;20887;-72
2023/08/08 10:40:58;;;;;;;6.82;1.38;;;;;;;;;;8211457;28;20066;-72
2023/08/08 10:45:00;;;;;;;4.55;1.40;;;;;;;;;;8209839;28;20034;-72
2023/08/08 10:49:05;;;;;;;2.45;1.27;;;;;;;;;;8209712;28;20514;-72
2023/08/08 10:53:07;;;;;;;1.55;1.00;;;;;;;;;;8208908;28;20026;-72
2023/08/08 10:57:16;;;;;;;3.33;1.27;;;;;;;;;;8209009;28;20373;-72
2023/08/08 11:01:16;;;;;;;1.95;1.30;;;;;;;;;;8209415;28;20034;-72
2023/08/08 11:05:17;;;;;;;3.58;1.30;;;;;;;;;;8209553;28;20130;-72
2023/08/08 11:09:18;;;;;;;2.92;1.15;;;;;;;;;;8205708;28;20034;-71
2023/08/08 11:13:19;;;;;;;5.67;1.10;;;;;;;;;;8207280;28;20026;-72
2023/08/08 11:17:19;;;;;;;2.90;1.10;;;;;;;;;;8222391;28;20049;-72
2023/08/08 11:21:20;;;;;;;4.85;1.20;;;;;;;;;;8203950;28;20026;-71
2023/08/08 11:25:27;;;;;;;2.63;1.17;;;;;;;;;;8221489;28;20027;-71
2023/08/08 11:29:30;;;;;;;3.88;1.08;;;;;;;;;;8208284;28;20030;-72
2023/08/08 11:33:31;;;;;;;4.63;1.20;;;;;;;;;;8202958;28;20653;-72
2023/08/08 11:37:31;;;;;;;2.00;1.00;;;;;;;;;;8206375;28;20744;-72
2023/08/08 11:41:31;;;;;;;2.63;1.20;;;;;;;;;;8210056;28;20141;-72
2023/08/08 11:45:32;;;;;;;2.35;1.30;;;;;;;;;;8208091;28;20061;-72
2023/08/08 11:49:39;;;;;;;4.38;1.33;;;;;;;;;;8207681;28;20034;-72
2023/08/08 11:53:47;;;;;;;7.90;1.20;;;;;;;;;;8205131;28;20031;-71
2023/08/08 11:57:48;;;;;;;3.25;1.13;;;;;;;;;;8207446;28;20161;-72
2023/08/08 12:01:48;;;;;;;4.40;1.10;;;;;;;;;;8205950;28;20034;-72
2023/08/08 12:05:49;;;;;;;3.83;1.10;;;;;;;;;;8222022;28;20117;-72
2023/08/08 12:09:49;;;;;;;3.47;1.40;;;;;;;;;;8200609;28;20122;-72
2023/08/08 12:13:49;;;;;;;1.52;1.02;;;;;;;;;;8206869;28;20027;-71
2023/08/08 12:17:50;;;;;;;3.10;1.10;;;;;;;;;;8204606;28;20026;-72
2023/08/08 12:21:51;;;;;;;5.65;1.35;;;;;;;;;;8204791;28;20015;-71
2023/08/08 12:25:51;;;;;;;4.10;1.20;;;;;;;;;;8205789;28;20027;-72
2023/08/08 12:29:54;;;;;;;5.05;1.40;;;;;;;;;;8202497;28;20388;-72
2023/08/08 12:33:54;;;;;;;;;;;;;;;;;;8204188;28;20081;-73
2023/08/08 12:37:55;;;;;;;2.30;1.20;;;;;;;;;;8203292;28;20681;-72
2023/08/08 12:41:55;;;;;;;1.73;1.10;;;;;;;;;;8203936;28;20027;-72
2023/08/08 12:45:55;;;;;;;1.75;1.02;;;;;;;;;;8204668;28;20031;-72
2023/08/08 12:49:55;;;;;;;4.03;1.80;;;;;;;;;;8205413;28;20078;-72
2023/08/08 12:53:56;;;;;;;2.65;1.40;;;;;;;;;;8205751;28;20843;-72
2023/08/08 12:57:56;;;;;;;2.15;1.05;;;;;;;;;;8204857;28;20031;-72
2023/08/08 13:01:56;;;;;;;3.63;1.20;;;;;;;;;;8206416;28;20141;-72
2023/08/08 13:05:56;;;;;;;2.77;1.20;;;;;;;;;;8204493;28;20026;-72
2023/08/08 13:09:56;;;;;;;2.58;1.00;;;;;;;;;;8204836;28;20744;-72
2023/08/08 13:13:56;;;;;;;7.43;1.42;;;;;;;;;;8202808;28;20019;-72
2023/08/08 13:17:57;;;;;;;4.47;1.20;;;;;;;;;;8204553;28;20077;-72
2023/08/08 13:21:57;;;;;;;3.77;1.17;;;;;;;;;;8206383;28;20459;-72
2023/08/08 13:25:57;;;;;;;2.45;1.00;;;;;;;;;;8203070;28;20022;-72
2023/08/08 13:29:58;;;;;;;3.83;1.10;;;;;;;;;;8205108;28;20649;-72
2023/08/08 13:33:58;;;;;;;8.23;1.20;;;;;;;;;;8205105;28;20038;-72
2023/08/08 13:37:59;;;;;;;3.22;1.10;;;;;;;;;;8204213;28;20073;-72
2023/08/08 13:41:59;;;;;;;3.90;1.20;;;;;;;;;;8204604;28;20032;-72
2023/08/08 13:46:00;;;;;;;3.03;0.90;;;;;;;;;;8206179;28;20096;-72
2023/08/08 13:50:00;;;;;;;2.03;1.10;;;;;;;;;;8204477;28;20023;-72
2023/08/08 13:54:00;;;;;;;2.92;1.20;;;;;;;;;;8202960;28;20090;-72
2023/08/08 13:58:00;;;;;;;3.15;0.98;;;;;;;;;;8203818;28;20137;-72
2023/08/08 14:02:01;;;;;;;2.13;1.00;;;;;;;;;;8205331;28;20141;-72
2023/08/08 14:06:01;;;;;;;2.10;1.10;;;;;;;;;;8210128;28;20046;-72
2023/08/08 14:10:02;;;;;;;3.17;1.30;;;;;;;;;;8203268;28;20027;-72
2023/08/08 14:14:03;;;;;;;2.58;1.15;;;;;;;;;;8208231;28;20889;-71
2023/08/08 14:18:03;;;;;;;2.17;1.10;;;;;;;;;;8205977;28;20660;-72
2023/08/08 14:22:03;;;;;;;2.90;1.15;;;;;;;;;;8204920;28;20077;-72
2023/08/08 14:26:04;;;;;;;2.53;0.98;;;;;;;;;;8208285;28;20114;-72
2023/08/08 14:30:04;;;;;;;2.47;1.10;;;;;;;;;;8206274;28;20121;-72
2023/08/08 14:34:05;;;;;;;3.72;1.20;;;;;;;;;;8214817;28;20038;-72
2023/08/08 14:38:05;;;;;;;1.92;1.20;;;;;;;;;;8208586;28;20034;-73
2023/08/08 14:42:05;;;;;;;3.15;1.00;;;;;;;;;;8209844;28;20034;-72
2023/08/08 14:46:05;;;;;;;5.20;1.10;;;;;;;;;;8207608;28;20134;-72
2023/08/08 14:50:06;;;;;;;3.75;1.30;;;;;;;;;;8208748;28;20076;-72
2023/08/08 14:54:06;;;;;;;2.35;1.10;;;;;;;;;;8209750;28;21942;-72
2023/08/08 14:58:06;;;;;;;2.20;1.20;;;;;;;;;;8208534;28;20972;-72
2023/08/08 15:02:07;;;;;;;2.08;0.90;;;;;;;;;;8209043;28;20042;-72
2023/08/08 15:06:07;;;;;;;2.57;1.07;;;;;;;;;;8210793;28;20923;-72
2023/08/08 15:10:07;;;;;;;2.40;1.23;;;;;;;;;;8207840;28;20321;-74
2023/08/08 15:14:07;;;;;;;2.28;1.10;;;;;;;;;;8209966;28;20538;-72
2023/08/08 15:18:08;;;;;;;2.38;1.27;;;;;;;;;;8208980;28;20073;-72
2023/08/08 15:22:08;;;;;;;2.53;1.00;;;;;;;;;;8213747;28;20049;-72
2023/08/08 15:26:08;;;;;;;2.53;1.63;;;;;;;;;;8209018;28;20293;-73
2023/08/08 15:30:09;;;;;;;4.03;1.30;;;;;;;;;;8208490;28;20022;-72
2023/08/08 15:34:09;;;;;;;2.47;1.33;;;;;;;;;;8207392;28;20018;-72
2023/08/08 15:38:10;;;;;;;2.83;1.42;;;;;;;;;;8208522;28;20057;-72
2023/08/08 15:42:10;;;;;;;2.92;1.33;;;;;;;;;;8211327;28;20027;-72
2023/08/08 15:46:10;;;;;;;3.73;1.30;;;;;;;;;;8211319;28;20355;-72
2023/08/08 15:50:11;;;;;;;1.40;1.10;;;;;;;;;;8209573;28;20469;-72
2023/08/08 15:54:11;;;;;;;5.82;1.30;;;;;;;;;;8208097;28;20610;-72
2023/08/08 15:58:11;;;;;;;2.90;1.48;;;;;;;;;;8206626;28;20062;-72
2023/08/08 16:02:11;;;;;;;2.40;1.13;;;;;;;;;;8207095;28;20030;-72
2023/08/08 16:06:11;;;;;;;3.87;1.50;;;;;;;;;;8207524;28;20508;-72
2023/08/08 16:10:12;;;;;;;3.97;1.42;;;;;;;;;;8206851;28;20459;-72
2023/08/08 16:14:12;;;;;;;4.35;1.30;;;;;;;;;;8209945;28;20472;-72
2023/08/08 16:18:12;;;;;;;3.10;1.30;;;;;;;;;;8207166;28;20041;-72
2023/08/08 16:22:12;;;;;;;2.60;1.38;;;;;;;;;;8205722;28;20041;-72
2023/08/08 16:26:12;;;;;;;2.67;1.40;;;;;;;;;;8206676;28;20057;-72
2023/08/08 16:30:12;;;;;;;2.05;1.40;;;;;;;;;;8205711;28;20069;-72
2023/08/08 16:34:13;;;;;;;3.30;1.30;;;;;;;;;;8205435;28;20036;-73
2023/08/08 16:38:14;;;;;;;2.63;1.30;;;;;;;;;;8204838;28;20026;-72
2023/08/08 16:42:14;;;;;;;2.58;1.20;;;;;;;;;;8208608;28;20458;-72
2023/08/08 16:46:14;;;;;;;2.13;1.33;;;;;;;;;;8205283;28;20570;-72
2023/08/08 16:50:14;;;;;;;3.35;1.20;;;;;;;;;;8206040;28;20033;-72
2023/08/08 16:54:15;;;;;;;2.53;1.20;;;;;;;;;;8205744;28;20076;-72
2023/08/08 16:58:15;;;;;;;2.50;1.17;;;;;;;;;;8206465;28;20027;-72
2023/08/08 17:02:15;;;;;;;2.13;1.38;;;;;;;;;;8207022;28;20042;-72
2023/08/08 17:06:16;;;;;;;2.57;1.40;;;;;;;;;;8205070;28;20751;-72
2023/08/08 17:10:16;;;;;;;2.28;1.25;;;;;;;;;;8204648;28;21029;-72
2023/08/08 17:14:17;;;;;;;4.50;1.50;;;;;;;;;;8204704;28;20022;-72
2023/08/08 17:18:17;;;;;;;2.87;1.37;;;;;;;;;;8206066;28;20038;-72
2023/08/08 17:22:17;;;;;;;2.65;1.40;;;;;;;;;;8204990;28;20034;-73
2023/08/08 17:26:17;;;;;;;4.18;1.42;;;;;;;;;;8206466;28;20126;-72
2023/08/08 17:30:17;;;;;;;3.85;1.58;;;;;;;;;;8202782;28;20034;-72
2023/08/08 17:34:18;;;;;;;8.20;1.67;;;;;;;;;;8201689;28;20033;-72
2023/08/08 17:38:18;;;;;;;4.55;1.30;;;;;;;;;;8201863;28;20026;-71
2023/08/08 17:42:18;;;;;;;5.22;1.33;;;;;;;;;;8202833;28;20022;-72
2023/08/08 17:46:18;;;;;;;2.88;1.35;;;;;;;;;;8217413;28;20039;-71
2023/08/08 17:50:19;;;;;;;9.77;1.60;;;;;;;;;;8209015;28;20023;-74
2023/08/08 17:54:19;;;;;;;4.03;1.38;;;;;;;;;;8210560;28;20149;-70
2023/08/08 17:58:19;;;;;;;2.65;1.10;;;;;;;;;;8203004;28;20066;-70
2023/08/08 18:02:19;;;;;;;6.15;1.40;;;;;;;;;;8206960;28;20034;-71
2023/08/08 18:06:20;;;;;;;2.80;1.20;;;;;;;;;;8203637;28;20040;-71
2023/08/08 18:10:20;;;;;;;2.13;1.20;;;;;;;;;;8202104;28;20023;-71
2023/08/08 18:14:20;;;;;;;4.27;1.40;;;;;;;;;;8205400;28;20030;-71
2023/08/08 18:18:23;;;;;;;2.00;1.30;;;;;;;;;;8206699;28;20291;-71
2023/08/08 18:22:23;;;;;;;3.30;1.30;;;;;;;;;;8207522;28;20590;-71
2023/08/08 18:26:24;;;;;;;3.83;1.50;;;;;;;;;;8214867;28;20027;-70
2023/08/08 18:30:24;;;;;;;2.90;1.40;;;;;;;;;;8209970;28;20047;-72
2023/08/08 18:34:24;;;;;;;4.07;1.30;;;;;;;;;;8210500;28;20117;-70
2023/08/08 18:38:25;;;;;;;3.38;1.40;;;;;;;;;;8212926;28;20117;-70
2023/08/08 18:42:25;;;;;;;3.83;1.30;;;;;;;;;;8215839;28;20029;-71
2023/08/08 18:46:26;;;;;;;2.53;1.30;;;;;;;;;;8229837;28;20061;-72
2023/08/08 18:50:27;;;;;;;4.65;1.58;;;;;;;;;;8218858;28;20707;-70
2023/08/08 18:54:27;;;;;;;3.20;1.40;;;;;;;;;;8211966;28;20507;-70
2023/08/08 18:58:28;;;;;;;4.03;1.40;;;;;;;;;;8211340;28;20125;-70
2023/08/08 19:02:29;;;;;;;2.28;1.38;;;;;;;;;;8209558;28;20078;-70
2023/08/08 19:06:32;;;;;;;3.97;1.70;;;;;;;;;;8208882;28;20027;-69
2023/08/08 19:10:32;;;;;;;2.93;1.30;;;;;;;;;;8206560;28;20372;-71
2023/08/08 19:14:32;;;;;;;3.07;1.40;;;;;;;;;;8209152;28;20015;-71
2023/08/08 19:18:34;;;;;;;3.28;1.15;;;;;;;;;;8204388;28;21595;-70
2023/08/08 19:22:34;;;;;;;3.65;1.33;;;;;;;;;;8209226;28;20085;-71
2023/08/08 19:26:35;;;;;;;4.13;1.50;;;;;;;;;;8208371;28;20144;-71
2023/08/08 19:30:35;;;;;;;3.15;1.38;;;;;;;;;;8206735;28;20051;-71
2023/08/08 19:34:35;;;;;;;4.00;1.40;;;;;;;;;;8209631;28;21067;-71
2023/08/08 19:38:36;;;;;;;1.60;1.10;;;;;;;;;;8214048;28;20036;-71
2023/08/08 19:42:36;;;;;;;2.17;1.10;;;;;;;;;;8206876;28;20022;-71
2023/08/08 19:46:36;;;;;;;4.45;1.30;;;;;;;;;;8205518;28;20035;-72
2023/08/08 19:50:37;;;;;;;3.78;1.30;;;;;;;;;;8207816;28;20121;-71
2023/08/08 19:54:37;;;;;;;2.55;1.48;;;;;;;;;;8219870;28;20034;-70
2023/08/08 19:58:38;;;;;;;7.95;1.52;;;;;;;;;;8206528;28;20476;-70
2023/08/08 20:02:38;;;;;;;1.77;1.23;;;;;;;;;;8206744;28;20145;-69
2023/08/08 20:06:38;;;;;;;3.83;1.50;;;;;;;;;;8207110;28;20432;-70
2023/08/08 20:10:39;;;;;;;3.85;1.63;;;;;;;;;;8206168;28;20294;-69
2023/08/08 20:14:39;;;;;;;2.65;1.40;;;;;;;;;;8211975;28;20019;-69
2023/08/08 20:18:39;;;;;;;3.47;1.47;;;;;;;;;;8206475;28;20042;-69
2023/08/08 20:22:39;;;;;;;3.00;1.50;;;;;;;;;;8205870;28;20018;-70
2023/08/08 20:26:40;;;;;;;3.60;1.50;;;;;;;;;;8204894;28;20139;-69
2023/08/08 20:30:40;;;;;;;4.28;1.60;;;;;;;;;;8206343;28;20052;-70
2023/08/08 20:34:40;;;;;;;2.77;1.50;;;;;;;;;;8206797;28;20141;-69
2023/08/08 20:38:41;;;;;;;2.95;1.42;;;;;;;;;;8203916;28;20027;-70
2023/08/08 20:42:42;;;;;;;4.43;1.35;;;;;;;;;;8205568;28;20180;-70
2023/08/08 20:46:42;;;;;;;3.15;1.45;;;;;;;;;;8204881;28;20069;-70
2023/08/08 20:50:42;;;;;;;4.07;1.60;;;;;;;;;;8205794;28;20030;-70
2023/08/08 20:54:42;;;;;;;6.63;1.70;;;;;;;;;;8203374;28;20018;-71
2023/08/08 20:58:43;;;;;;;3.83;1.60;;;;;;;;;;8204273;28;20058;-70
2023/08/08 21:02:43;;;;;;;4.75;1.95;;;;;;;;;;8204022;28;20317;-70
2023/08/08 21:06:43;;;;;;;4.82;1.80;;;;;;;;;;8204888;28;20052;-70
2023/08/08 21:10:44;;;;;;;5.40;1.90;;;;;;;;;;8196221;28;20038;-71
2023/08/08 21:14:44;;;;;;;2.33;1.58;;;;;;;;;;8199984;28;20074;-70
2023/08/08 21:18:44;;;;;;;3.70;1.67;;;;;;;;;;8208116;28;20165;-71
2023/08/08 21:22:44;;;;;;;2.10;1.40;;;;;;;;;;8208035;28;20073;-71
2023/08/08 21:26:45;;;;;;;2.25;1.50;;;;;;;;;;8210314;28;20274;-70
2023/08/08 21:30:45;;;;;;;4.00;1.50;;;;;;;;;;8217681;28;20053;-70
2023/08/08 21:34:45;;;;;;;2.78;1.40;;;;;;;;;;8213257;28;20033;-70
2023/08/08 21:38:45;;;;;;;3.08;1.60;;;;;;;;;;8212674;28;20109;-70
2023/08/08 21:42:46;;;;;;;2.08;1.45;;;;;;;;;;8215289;28;20589;-70
2023/08/08 21:46:46;;;;;;;3.45;1.50;;;;;;;;;;8215210;28;20043;-70
2023/08/08 21:50:46;;;;;;;7.20;1.40;;;;;;;;;;8214820;28;20101;-70
2023/08/08 21:54:46;;;;;;;2.25;1.40;;;;;;;;;;8210207;28;20030;-70
2023/08/08 21:58:46;;;;;;;3.45;1.38;;;;;;;;;;8209730;28;20122;-70
2023/08/08 22:02:46;;;;;;;4.57;2.05;;;;;;;;;;8211916;28;20049;-70
2023/08/08 22:06:47;;;;;;;2.58;1.60;;;;;;;;;;8211327;28;20031;-70
2023/08/08 22:10:47;;;;;;;1.90;1.45;;;;;;;;;;8214845;28;20018;-70
2023/08/08 22:14:48;;;;;;;4.57;1.42;;;;;;;;;;8213474;28;20130;-70
2023/08/08 22:18:48;;;;;;;3.80;1.50;;;;;;;;;;8211135;28;20130;-70
2023/08/08 22:22:48;;;;;;;2.43;1.40;;;;;;;;;;8211326;28;20383;-70
2023/08/08 22:26:49;;;;;;;2.60;1.48;;;;;;;;;;8211723;28;20706;-70
2023/08/08 22:30:50;;;;;;;2.58;1.30;;;;;;;;;;8211898;28;20038;-70
2023/08/08 22:34:50;;;;;;;2.10;1.40;;;;;;;;;;8213143;28;20073;-70
2023/08/08 22:38:51;;;;;;;6.18;1.55;;;;;;;;;;8210747;28;20014;-70
2023/08/08 22:42:51;;;;;;;2.75;1.48;;;;;;;;;;8213311;28;20023;-70
2023/08/08 22:46:51;;;;;;;1.35;1.20;;;;;;;;;;8211030;28;20058;-70
2023/08/08 22:50:51;;;;;;;2.17;1.30;;;;;;;;;;8212280;28;20391;-70
2023/08/08 22:54:52;;;;;;;2.30;1.37;;;;;;;;;;8210624;28;20034;-70
2023/08/08 22:58:52;;;;;;;2.05;1.38;;;;;;;;;;8212172;28;20750;-70
2023/08/08 23:02:53;;;;;;;2.00;1.20;;;;;;;;;;8207406;28;20038;-70
2023/08/08 23:06:53;;;;;;;4.45;1.50;;;;;;;;;;8208503;28;20026;-68
2023/08/08 23:10:54;;;;;;;2.00;1.45;;;;;;;;;;8207540;28;20145;-69
2023/08/08 23:14:54;;;;;;;2.75;1.50;;;;;;;;;;8211049;28;20055;-70
2023/08/08 23:18:54;;;;;;;4.03;1.48;;;;;;;;;;8209482;28;20565;-70
2023/08/08 23:22:54;;;;;;;2.85;1.50;;;;;;;;;;8206347;28;20030;-70
2023/08/08 23:26:55;;;;;;;2.90;1.70;;;;;;;;;;8209144;28;20026;-69
2023/08/08 23:30:55;;;;;;;3.38;1.73;;;;;;;;;;8209002;28;20046;-69
2023/08/08 23:34:55;;;;;;;3.45;1.55;;;;;;;;;;8207732;28;20376;-69
2023/08/08 23:38:56;;;;;;;4.15;1.60;;;;;;;;;;8209984;28;20057;-69
2023/08/08 23:42:56;;;;;;;1.65;1.40;;;;;;;;;;8210784;28;20026;-69
2023/08/08 23:46:56;;;;;;;3.92;1.40;;;;;;;;;;8209992;28;20740;-70
2023/08/08 23:50:56;;;;;;;1.77;1.35;;;;;;;;;;8209842;28;20034;-69
2023/08/08 23:54:57;;;;;;;2.70;1.40;;;;;;;;;;8209161;28;20042;-69
2023/08/08 23:58:58;;;;;;;3.45;1.40;;;;;;;;;;8208029;28;20038;-69
